Time;durP1;ratioP1;P1;durP2;ratioP2;P2;SDS_P1;SDS_P2;PMS_P1;PMS_P2;Temp;Humidity;BMP_temperature;BMP_pressure;BME280_temperature;BME280_humidity;BME280_pressure;Samples;Min_cycle;Max_cycle;Signal;HPM_P1;HPM_P2
2022/05/29 00:01:26;;;;;;;8.68;2.25;;;;;;;19.58;36.94;102439.44;5092876;28;20458;-73
2022/05/29 00:03:51;;;;;;;7.95;2.30;;;;;;;19.49;37.26;102429.50;5093408;28;20540;-75
2022/05/29 00:06:17;;;;;;;6.50;2.38;;;;;;;19.45;37.00;102431.31;5092889;28;20020;-72
2022/05/29 00:08:44;;;;;;;5.68;2.55;;;;;;;19.37;37.04;102431.03;5093149;28;20032;-72
2022/05/29 00:11:13;;;;;;;6.18;1.85;;;;;;;19.31;37.07;102428.75;5093062;28;20032;-73
2022/05/29 00:13:39;;;;;;;7.60;1.92;;;;;;;19.20;37.04;102421.97;5092855;28;20032;-72
2022/05/29 00:16:05;;;;;;;16.73;3.80;;;;;;;19.15;37.16;102424.91;5093289;28;20380;-73
2022/05/29 00:18:31;;;;;;;7.82;2.20;;;;;;;19.17;37.17;102417.88;5092808;28;20058;-73
2022/05/29 00:20:59;;;;;;;8.05;3.33;;;;;;;19.13;37.17;102417.75;5092904;28;20024;-76
2022/05/29 00:23:28;;;;;;;5.07;2.00;;;;;;;19.13;37.22;102419.69;5078565;28;20033;-72
2022/05/29 00:25:54;;;;;;;4.65;1.95;;;;;;;19.09;37.33;102415.94;5072520;28;20040;-72
2022/05/29 00:28:20;;;;;;;15.90;3.13;;;;;;;19.13;37.34;102411.38;5072597;28;20400;-72
2022/05/29 00:30:46;;;;;;;4.03;2.42;;;;;;;19.15;37.07;102409.09;5082884;28;20674;-73
2022/05/29 00:33:12;;;;;;;4.45;1.90;;;;;;;19.24;36.88;102411.81;5092343;28;20368;-72
2022/05/29 00:35:39;;;;;;;4.47;1.80;;;;;;;19.22;36.96;102406.63;5091436;28;20081;-72
2022/05/29 00:38:08;;;;;;;4.20;2.33;;;;;;;19.17;37.20;102408.75;5092571;28;20053;-72
2022/05/29 00:40:43;;;;;;;5.05;2.38;;;;;;;19.20;37.31;102410.88;5092599;28;20118;-72
2022/05/29 00:43:09;;;;;;;6.80;1.98;;;;;;;19.16;36.91;102399.63;5092715;28;20032;-72
2022/05/29 00:45:59;;;;;;;3.30;1.67;;;;;;;19.08;37.32;102392.97;5092591;28;20032;-72
2022/05/29 00:48:25;;;;;;;7.43;1.90;;;;;;;19.05;37.05;102392.84;5074294;28;20043;-71
2022/05/29 00:50:54;;;;;;;5.22;1.60;;;;;;;18.99;37.16;102394.16;5072570;28;20034;-72
2022/05/29 00:53:22;;;;;;;6.90;2.23;;;;;;;18.95;37.28;102376.56;5072316;28;20122;-72
2022/05/29 00:55:53;;;;;;;4.28;1.77;;;;;;;18.93;37.58;102381.63;5072172;28;20269;-71
2022/05/29 00:58:22;;;;;;;5.40;1.58;;;;;;;18.93;37.27;102385.19;5072200;28;20067;-71
2022/05/29 01:00:49;;;;;;;4.95;1.40;;;;;;;18.95;37.19;102382.09;5072307;28;20543;-72
2022/05/29 01:03:15;;;;;;;4.07;2.10;;;;;;;18.94;37.20;102383.25;5072181;28;20091;-72
2022/05/29 01:05:41;;;;;;;6.15;2.00;;;;;;;19.02;37.15;102383.22;5072168;28;20025;-72
2022/05/29 01:08:29;;;;;;;5.82;1.98;;;;;;;18.98;37.24;102373.94;5072102;28;20036;-73
2022/05/29 01:11:07;;;;;;;7.15;1.70;;;;;;;18.94;37.19;102369.38;5073235;28;20029;-72
2022/05/29 01:14:23;;;;;;;10.65;2.28;;;;;;;18.84;37.38;102370.56;5093151;28;20026;-72
2022/05/29 01:17:00;;;;;;;4.15;1.60;;;;;;;18.90;37.32;102362.91;5053776;28;20033;-72
2022/05/29 01:20:01;;;;;;;6.22;1.83;;;;;;;18.79;37.34;102366.00;5095012;28;20093;-72
2022/05/29 01:22:45;;;;;;;9.98;2.70;;;;;;;18.85;37.10;102356.38;5096407;28;20028;-72
2022/05/29 01:25:38;;;;;;;8.52;3.08;;;;;;;18.78;37.31;102356.06;5096009;28;20127;-73
2022/05/29 01:28:25;;;;;;;2.47;1.52;;;;;;;18.81;37.28;102352.63;5096265;28;20355;-72
2022/05/29 01:31:03;;;;;;;9.63;2.50;;;;;;;18.80;37.42;102347.44;5096171;28;20024;-72
2022/05/29 01:33:44;;;;;;;4.45;2.10;;;;;;;18.83;37.30;102346.78;5096161;28;20073;-72
2022/05/29 01:36:17;;;;;;;10.20;2.03;;;;;;;18.89;37.27;102350.97;5088470;28;20017;-72
2022/05/29 01:38:57;;;;;;;8.70;2.10;;;;;;;18.78;37.64;102341.41;5075774;28;20544;-71
2022/05/29 01:41:33;;;;;;;5.70;1.85;;;;;;;18.78;37.52;102336.69;5075698;28;20021;-72
2022/05/29 01:44:14;;;;;;;5.15;2.13;;;;;;;18.73;37.63;102345.16;5075662;28;20027;-72
2022/05/29 01:46:43;;;;;;;8.20;2.05;;;;;;;18.75;37.41;102342.91;5075479;28;20027;-72
2022/05/29 01:49:24;;;;;;;5.68;2.10;;;;;;;18.73;37.52;102341.59;5075585;28;20115;-73
2022/05/29 01:51:59;;;;;;;7.97;2.53;;;;;;;18.73;37.47;102338.81;5075469;28;20025;-72
2022/05/29 01:54:55;;;;;;;5.72;2.20;;;;;;;18.66;37.53;102335.75;5075617;28;20024;-73
2022/05/29 01:57:32;;;;;;;5.47;2.20;;;;;;;18.63;37.59;102333.59;5074096;28;20025;-71
2022/05/29 02:00:03;;;;;;;6.10;1.80;;;;;;;18.64;37.40;102333.28;5075333;28;20391;-71
2022/05/29 02:02:41;;;;;;;8.63;2.25;;;;;;;18.60;37.62;102335.09;5082443;28;20036;-72
2022/05/29 02:05:12;;;;;;;5.55;1.98;;;;;;;18.62;37.50;102337.53;5095444;28;20047;-73
2022/05/29 02:07:50;;;;;;;;;;;;;;;18.43;37.80;102324.84;5096047;28;20016;-73
2022/05/29 02:10:44;;;;;;;4.88;1.80;;;;;;;18.51;37.47;102331.50;5095469;28;19919;-72
2022/05/29 02:13:18;;;;;;;7.95;2.72;;;;;;;18.39;38.19;102336.91;5095008;28;20035;-75
2022/05/29 02:16:03;;;;;;;6.90;2.15;;;;;;;18.48;37.78;102326.63;5095209;28;20107;-72
2022/05/29 02:18:47;;;;;;;6.72;2.58;;;;;;;18.46;37.96;102331.69;5093848;28;20417;-72
2022/05/29 02:21:25;;;;;;;9.07;2.22;;;;;;;18.46;37.86;102332.50;5094863;28;20374;-73
2022/05/29 02:23:55;;;;;;;6.43;2.30;;;;;;;18.47;37.73;102328.59;5095214;28;20107;-72
2022/05/29 02:26:26;;;;;;;10.68;2.33;;;;;;;18.50;37.77;102327.13;5093396;28;20039;-72
2022/05/29 02:28:57;;;;;;;10.38;2.17;;;;;;;18.57;37.51;102317.16;5095096;28;20089;-72
2022/05/29 02:31:29;;;;;;;8.73;2.20;;;;;;;18.58;37.54;102313.25;5083670;28;20031;-73
2022/05/29 02:34:11;;;;;;;6.22;2.20;;;;;;;18.46;37.61;102315.09;5074725;28;20039;-72
2022/05/29 02:36:49;;;;;;;8.02;2.00;;;;;;;18.47;37.92;102308.41;5074701;28;20107;-72
2022/05/29 02:39:52;;;;;;;8.18;2.65;;;;;;;18.44;37.75;102311.81;5074586;28;20040;-72
2022/05/29 02:42:50;;;;;;;20.02;3.17;;;;;;;18.39;37.97;102314.78;5074511;28;20055;-71
2022/05/29 02:45:23;;;;;;;6.45;2.10;;;;;;;18.41;37.85;102309.72;5066685;28;20430;-72
2022/05/29 02:47:49;;;;;;;7.50;2.55;;;;;;;18.38;37.93;102308.44;5074513;28;20111;-72
2022/05/29 02:50:27;;;;;;;16.60;2.85;;;;;;;18.40;37.98;102302.56;5074349;28;20107;-72
2022/05/29 02:52:54;;;;;;;7.25;2.90;;;;;;;18.38;37.92;102308.44;5075414;28;20024;-72
2022/05/29 02:55:24;;;;;;;7.15;2.35;;;;;;;18.37;38.12;102303.22;5074335;28;20082;-72
2022/05/29 02:57:54;;;;;;;7.72;2.85;;;;;;;18.25;38.16;102299.16;5074271;28;20112;-73
2022/05/29 03:00:20;;;;;;;4.45;2.25;;;;;;;18.32;37.79;102295.09;5074671;28;20024;-72
2022/05/29 03:03:30;;;;;;;7.95;2.85;;;;;;;18.25;38.05;102290.03;5094328;28;20453;-72
2022/05/29 03:06:08;;;;;;;7.03;2.85;;;;;;;18.20;38.13;102299.31;5089391;28;20036;-72
2022/05/29 03:08:59;;;;;;;7.78;2.45;;;;;;;18.18;38.19;102290.53;5094409;28;20030;-72
2022/05/29 03:11:34;;;;;;;12.68;3.15;;;;;;;18.18;38.16;102285.00;5094260;28;20056;-72
2022/05/29 03:14:08;;;;;;;9.82;3.28;;;;;;;18.23;37.92;102272.97;5094162;28;20024;-75
2022/05/29 03:17:09;;;;;;;7.82;2.97;;;;;;;18.15;38.15;102277.38;5094424;28;20023;-72
2022/05/29 03:19:51;;;;;;;12.63;4.43;;;;;;;18.21;37.91;102272.47;5094036;28;20028;-72
2022/05/29 03:23:03;;;;;;;15.90;3.90;;;;;;;18.20;38.16;102271.66;5094134;28;20028;-72
2022/05/29 03:25:36;;;;;;;8.30;2.20;;;;;;;18.20;37.95;102263.34;5093631;28;20200;-72
2022/05/29 03:28:07;;;;;;;6.57;2.47;;;;;;;18.16;37.97;102259.63;5094135;28;20120;-72
2022/05/29 03:30:36;;;;;;;12.02;3.42;;;;;;;18.01;38.23;102255.41;5091875;28;20382;-72
2022/05/29 03:33:06;;;;;;;8.45;2.50;;;;;;;17.95;38.46;102255.91;5073598;28;20024;-72
2022/05/29 03:35:36;;;;;;;;;;;;;;;17.82;38.73;102248.59;5073937;28;20483;-72
2022/05/29 03:38:03;;;;;;;9.35;2.47;;;;;;;17.97;38.03;102248.91;5072906;28;20362;-74
2022/05/29 03:40:32;;;;;;;5.13;2.30;;;;;;;17.87;38.74;102232.66;5073403;28;20174;-72
2022/05/29 03:42:58;;;;;;;10.02;2.90;;;;;;;17.91;38.47;102244.69;5055899;28;20039;-72
2022/05/29 03:45:24;;;;;;;5.53;2.70;;;;;;;17.84;38.84;102238.84;5051970;28;20112;-72
2022/05/29 03:47:50;;;;;;;7.35;2.67;;;;;;;17.90;38.62;102231.19;5053274;28;20043;-71
2022/05/29 03:50:18;;;;;;;9.98;2.90;;;;;;;17.96;38.61;102235.41;5053309;28;20033;-72
2022/05/29 03:52:45;;;;;;;6.63;2.85;;;;;;;17.95;38.63;102233.78;5051943;28;20029;-73
2022/05/29 03:55:12;;;;;;;13.10;3.53;;;;;;;17.97;38.47;102237.03;5068461;28;20464;-75
2022/05/29 03:57:38;;;;;;;8.20;3.03;;;;;;;17.97;38.67;102229.53;5053080;28;20163;-71
2022/05/29 04:00:05;;;;;;;8.43;3.10;;;;;;;17.93;38.48;102225.81;5063243;28;20577;-71
2022/05/29 04:02:31;;;;;;;12.70;4.90;;;;;;;18.01;38.65;102232.47;5093195;28;20016;-72
2022/05/29 04:04:56;;;;;;;9.73;3.53;;;;;;;17.84;39.08;102229.75;5093158;28;20016;-71
2022/05/29 04:12:03;;;;;;;9.60;2.95;;;;;;;18.09;38.46;102233.59;5093188;28;20077;-75
2022/05/29 04:12:57;;;;;;;9.80;3.17;;;;;;;18.10;38.34;102233.28;5093404;28;20464;-72
2022/05/29 04:15:23;;;;;;;10.77;2.90;;;;;;;18.17;38.38;102230.81;5092998;28;20028;-72
2022/05/29 04:17:49;;;;;;;12.70;2.70;;;;;;;18.16;38.46;102229.19;5093046;28;20031;-72
2022/05/29 04:20:15;;;;;;;10.13;3.17;;;;;;;18.17;38.30;102222.53;5093020;28;20032;-72
2022/05/29 04:22:41;;;;;;;8.27;2.28;;;;;;;18.14;38.25;102223.19;5091412;28;20028;-72
2022/05/29 04:25:07;;;;;;;8.20;2.58;;;;;;;18.00;38.83;102225.31;5093017;28;20155;-72
2022/05/29 04:27:33;;;;;;;5.65;2.33;;;;;;;18.15;38.44;102226.78;5092859;28;20039;-72
2022/05/29 04:29:58;;;;;;;11.45;2.85;;;;;;;18.18;38.40;102215.84;5087967;28;20028;-71
2022/05/29 04:35:09;;;;;;;12.23;2.72;;;;;;;18.17;38.51;102207.88;5070824;28;20032;-74
2022/05/29 04:37:34;;;;;;;11.50;3.33;;;;;;;18.11;38.95;102215.53;5072575;28;20375;-72
2022/05/29 04:40:00;;;;;;;11.10;2.70;;;;;;;18.25;38.56;102207.84;5071122;28;20032;-72
2022/05/29 04:42:26;;;;;;;9.45;2.75;;;;;;;18.39;38.50;102213.19;5072407;28;20086;-72
2022/05/29 04:44:52;;;;;;;8.02;2.67;;;;;;;18.28;38.50;102204.41;5072340;28;20078;-72
2022/05/29 04:47:17;;;;;;;9.82;3.08;;;;;;;18.33;38.70;102211.75;5072139;28;20063;-72
2022/05/29 04:49:43;;;;;;;11.65;2.42;;;;;;;18.43;38.48;102210.56;5070260;28;20035;-71
2022/05/29 04:52:10;;;;;;;7.95;3.10;;;;;;;18.40;38.70;102200.97;5072646;28;20368;-70
2022/05/29 04:54:39;;;;;;;8.88;2.53;;;;;;;18.39;38.67;102198.53;5080965;28;20024;-70
2022/05/29 04:57:06;;;;;;;8.32;2.30;;;;;;;18.50;38.37;102194.25;5092457;28;20032;-71
2022/05/29 04:59:32;;;;;;;7.80;2.30;;;;;;;18.57;38.46;102200.09;5091565;28;20032;-71
2022/05/29 05:02:00;;;;;;;10.10;2.67;;;;;;;18.55;38.48;102202.38;5072224;28;20025;-71
2022/05/29 05:04:26;;;;;;;5.07;2.28;;;;;;;18.54;38.57;102198.00;5072206;28;20120;-70
2022/05/29 05:06:58;;;;;;;5.93;2.15;;;;;;;18.45;38.84;102200.00;5071030;28;20052;-71
2022/05/29 05:09:24;;;;;;;9.15;2.55;;;;;;;18.61;38.50;102195.53;5072147;28;20672;-71
2022/05/29 05:11:52;;;;;;;5.03;2.15;;;;;;;18.67;38.43;102196.19;5072214;28;20029;-70
2022/05/29 05:14:19;;;;;;;5.35;2.40;;;;;;;18.62;38.61;102199.91;5072138;28;20550;-70
2022/05/29 05:16:46;;;;;;;7.20;2.63;;;;;;;18.69;38.55;102203.00;5072024;28;20024;-72
2022/05/29 05:19:12;;;;;;;6.45;2.22;;;;;;;18.81;38.40;102199.53;5071959;28;20128;-71
2022/05/29 05:21:37;;;;;;;6.35;2.83;;;;;;;18.78;38.41;102201.00;5072058;28;20104;-73
2022/05/29 05:24:04;;;;;;;4.72;1.83;;;;;;;18.64;38.82;102200.38;5071994;28;20032;-75
2022/05/29 05:26:30;;;;;;;8.30;2.47;;;;;;;18.76;38.56;102200.53;5071745;28;20044;-72
2022/05/29 05:28:56;;;;;;;10.25;2.70;;;;;;;18.72;38.67;102199.56;5071903;28;20043;-72
2022/05/29 05:31:22;;;;;;;9.40;2.70;;;;;;;18.88;38.77;102188.72;5087202;28;20042;-74
2022/05/29 05:33:48;;;;;;;6.07;2.50;;;;;;;18.97;38.41;102197.00;5092122;28;20035;-72
2022/05/29 05:36:15;;;;;;;9.43;2.53;;;;;;;19.11;38.18;102187.28;5092031;28;20032;-71
2022/05/29 05:38:41;;;;;;;7.07;2.67;;;;;;;19.18;38.22;102192.28;5090706;28;20039;-73
2022/05/29 05:41:09;;;;;;;7.22;2.22;;;;;;;18.98;38.60;102188.38;5092085;28;20368;-72
2022/05/29 05:43:36;;;;;;;10.55;2.83;;;;;;;19.25;38.18;102187.03;5092086;28;20070;-71
2022/05/29 05:46:05;;;;;;;5.97;2.30;;;;;;;19.38;38.35;102188.72;5091881;28;20028;-72
2022/05/29 05:48:31;;;;;;;10.75;2.53;;;;;;;19.18;38.72;102183.97;5082250;28;20066;-72
2022/05/29 05:50:57;;;;;;;6.63;2.22;;;;;;;19.44;38.34;102186.56;5071809;28;20037;-72
2022/05/29 05:53:24;;;;;;;8.02;2.67;;;;;;;19.58;38.38;102183.56;5071776;28;20029;-72
2022/05/29 05:55:50;;;;;;;9.82;3.63;;;;;;;19.98;37.92;102191.34;5071603;28;20028;-72
2022/05/29 05:58:16;;;;;;;8.68;2.40;;;;;;;20.15;37.92;102191.97;5071175;28;20119;-72
2022/05/29 06:00:47;;;;;;;5.93;2.10;;;;;;;20.32;37.60;102199.28;5072575;28;20487;-72
2022/05/29 06:03:12;;;;;;;9.73;2.60;;;;;;;20.53;37.47;102199.22;5074876;28;20543;-72
2022/05/29 06:05:38;;;;;;;10.77;3.00;;;;;;;20.53;37.38;102190.91;5073867;28;20028;-72
2022/05/29 06:08:04;;;;;;;11.32;2.25;;;;;;;20.46;37.58;102207.31;5074672;28;20028;-72
2022/05/29 06:10:30;;;;;;;9.45;2.30;;;;;;;20.43;37.41;102199.66;5074736;28;20475;-74
2022/05/29 06:13:00;;;;;;;10.32;2.05;;;;;;;20.30;37.34;102193.25;5074966;28;20027;-72
2022/05/29 06:15:27;;;;;;;8.45;2.33;;;;;;;20.52;37.22;102194.03;5072320;28;20031;-72
2022/05/29 06:17:53;;;;;;;9.98;2.97;;;;;;;20.53;37.36;102192.88;5075393;28;21900;-72
2022/05/29 06:20:18;;;;;;;6.85;2.22;;;;;;;20.38;37.42;102189.56;5076012;28;20478;-72
2022/05/29 06:22:44;;;;;;;8.75;2.08;;;;;;;20.40;37.15;102194.78;5074512;28;20020;-72
2022/05/29 06:25:10;;;;;;;7.25;2.30;;;;;;;20.62;36.96;102201.91;5074315;28;20048;-73
2022/05/29 06:27:38;;;;;;;6.15;2.75;;;;;;;20.64;36.78;102194.03;5076568;28;20131;-72
2022/05/29 06:30:05;;;;;;;7.68;2.13;;;;;;;20.76;36.67;102200.41;5074270;28;20421;-73
2022/05/29 06:32:31;;;;;;;7.97;2.58;;;;;;;20.77;36.90;102206.75;5077724;28;20440;-72
2022/05/29 06:34:56;;;;;;;12.88;2.50;;;;;;;20.90;36.70;102197.28;5074261;28;20060;-76
2022/05/29 06:37:22;;;;;;;12.90;2.50;;;;;;;20.99;36.64;102195.16;5074544;28;20520;-72
2022/05/29 06:39:48;;;;;;;7.28;2.03;;;;;;;21.18;36.39;102194.59;5074170;28;20047;-71
2022/05/29 06:42:13;;;;;;;5.82;2.10;;;;;;;21.10;36.59;102203.88;5072912;28;20021;-71
2022/05/29 06:44:40;;;;;;;8.07;2.42;;;;;;;21.32;36.26;102191.47;5074258;28;20043;-72
2022/05/29 06:47:07;;;;;;;12.02;2.35;;;;;;;21.31;36.13;102195.38;5074487;28;20081;-71
2022/05/29 06:49:34;;;;;;;5.13;2.13;;;;;;;21.42;36.16;102204.88;5073209;28;20471;-72
2022/05/29 06:52:00;;;;;;;9.10;2.70;;;;;;;21.58;36.24;102204.94;5074784;28;20120;-71
2022/05/29 06:54:26;;;;;;;9.30;2.08;;;;;;;21.71;36.02;102200.94;5073255;28;20559;-71
2022/05/29 06:56:51;;;;;;;8.43;2.17;;;;;;;21.72;36.29;102212.88;5074667;28;20024;-72
2022/05/29 06:59:17;;;;;;;11.55;3.20;;;;;;;21.86;35.99;102200.19;5092172;28;20465;-71
2022/05/29 07:07:14;;;;;;;3.60;1.90;;;;;;;22.15;35.33;102201.81;5088692;28;20402;-72
2022/05/29 07:09:40;;;;;;;6.57;2.28;;;;;;;22.34;35.48;102203.88;5074195;28;20436;-74
2022/05/29 07:12:13;;;;;;;4.65;1.65;;;;;;;22.21;35.30;102201.53;5073063;28;20120;-73
2022/05/29 07:14:42;;;;;;;6.88;2.30;;;;;;;22.30;34.97;102210.56;5074026;28;20090;-75
2022/05/29 07:17:08;;;;;;;9.52;2.67;;;;;;;22.11;35.09;102198.13;5073957;28;20024;-72
2022/05/29 07:19:34;;;;;;;8.52;2.25;;;;;;;22.35;35.07;102202.72;5072584;28;20552;-72
2022/05/29 07:22:00;;;;;;;3.92;1.85;;;;;;;22.35;35.35;102199.13;5072239;28;20060;-73
2022/05/29 07:24:27;;;;;;;6.95;2.00;;;;;;;22.28;35.35;102212.84;5073421;28;20439;-74
2022/05/29 07:26:53;;;;;;;7.43;1.75;;;;;;;22.41;35.31;102203.28;5070628;28;20048;-73
2022/05/29 07:29:20;;;;;;;6.72;1.90;;;;;;;22.40;35.66;102196.88;5075441;28;20031;-76
2022/05/29 07:31:46;;;;;;;5.35;2.28;;;;;;;22.59;35.44;102190.59;5073267;28;20048;-72
2022/05/29 07:34:12;;;;;;;7.10;2.40;;;;;;;22.63;35.61;102191.50;5072249;28;20067;-73
2022/05/29 07:36:38;;;;;;;4.82;2.47;;;;;;;22.51;35.33;102188.78;5073510;28;20398;-73
2022/05/29 07:39:04;;;;;;;8.45;2.80;;;;;;;22.46;35.45;102175.16;5073349;28;20021;-72
2022/05/29 07:44:14;;;;;;;6.75;2.53;;;;;;;22.44;35.17;102183.03;5093174;28;20540;-72
2022/05/29 07:46:40;;;;;;;5.82;2.15;;;;;;;22.51;35.19;102180.44;5093549;28;20079;-73
2022/05/29 07:49:06;;;;;;;8.18;2.15;;;;;;;22.58;35.32;102186.19;5093515;28;20518;-73
2022/05/29 07:51:33;;;;;;;13.25;3.78;;;;;;;22.45;35.72;102183.88;5093521;28;20020;-76
2022/05/29 07:53:58;;;;;;;6.63;2.25;;;;;;;22.41;35.48;102181.78;5092024;28;20806;-71
2022/05/29 07:56:26;;;;;;;5.43;2.03;;;;;;;22.22;35.37;102183.66;5071776;28;20039;-75
2022/05/29 07:58:52;;;;;;;7.43;2.22;;;;;;;22.52;35.11;102182.09;5085253;28;20039;-70
2022/05/29 08:01:19;;;;;;;11.00;2.60;;;;;;;22.66;35.04;102173.25;5091679;28;20027;-71
2022/05/29 08:03:45;;;;;;;7.13;2.10;;;;;;;22.78;34.70;102175.13;5093279;28;20016;-72
2022/05/29 08:06:11;;;;;;;8.90;2.33;;;;;;;22.56;35.43;102182.97;5091952;28;20016;-71
2022/05/29 08:08:37;;;;;;;11.60;3.30;;;;;;;22.61;35.24;102177.13;5083818;28;20033;-72
2022/05/29 08:11:04;;;;;;;7.57;2.45;;;;;;;22.55;35.60;102172.19;5078057;28;20466;-71
2022/05/29 08:13:35;;;;;;;8.70;3.10;;;;;;;22.49;35.61;102174.44;5085090;28;20028;-71
2022/05/29 08:16:02;;;;;;;6.97;2.35;;;;;;;22.53;35.79;102164.19;5079031;28;20509;-70
2022/05/29 08:18:28;;;;;;;8.35;2.85;;;;;;;22.47;35.95;102171.19;5072612;28;20085;-73
2022/05/29 08:20:55;;;;;;;11.43;2.53;;;;;;;22.48;36.10;102172.81;5072419;28;20032;-72
2022/05/29 08:23:21;;;;;;;5.43;2.95;;;;;;;22.48;36.49;102181.16;5083632;28;20024;-72
2022/05/29 08:31:08;;;;;;;8.70;2.60;;;;;;;22.81;36.56;102174.38;5072543;28;20502;-73
2022/05/29 08:33:35;;;;;;;9.48;2.53;;;;;;;22.91;36.56;102173.88;5070918;28;20052;-73
2022/05/29 08:36:25;;;;;;;8.85;2.67;;;;;;;22.89;36.74;102174.22;5072175;28;20459;-73
2022/05/29 08:38:54;;;;;;;9.43;3.22;;;;;;;22.83;36.76;102172.88;5054384;28;20433;-74
2022/05/29 08:41:38;;;;;;;11.20;2.70;;;;;;;22.32;37.63;102169.22;5069370;28;20517;-74
2022/05/29 08:44:20;;;;;;;8.15;2.45;;;;;;;22.79;36.34;102171.16;5072015;28;20017;-74
2022/05/29 08:46:52;;;;;;;10.05;2.40;;;;;;;22.56;37.20;102171.81;5074418;28;20028;-77
2022/05/29 08:49:28;;;;;;;8.35;2.63;;;;;;;22.32;37.52;102174.78;5077489;28;20108;-77
2022/05/29 08:51:57;;;;;;;9.45;2.33;;;;;;;22.49;37.50;102173.63;5071736;28;20039;-78
2022/05/29 08:54:51;;;;;;;14.50;2.75;;;;;;;22.45;37.88;102167.16;5069694;28;20101;-77
2022/05/29 08:57:23;;;;;;;14.65;3.30;;;;;;;22.97;37.51;102162.09;5070971;28;20349;-77
2022/05/29 09:00:05;;;;;;;15.98;3.35;;;;;;;22.99;37.85;102147.78;5068289;28;20520;-77
2022/05/29 09:02:52;;;;;;;8.90;2.40;;;;;;;23.06;37.38;102139.59;5066283;28;20085;-76
2022/05/29 09:05:32;;;;;;;17.63;3.22;;;;;;;23.35;37.12;102142.97;5070154;28;20025;-78
2022/05/29 09:08:06;;;;;;;15.02;3.22;;;;;;;23.38;37.72;102142.25;5068626;28;20075;-77
2022/05/29 09:10:43;;;;;;;10.10;3.03;;;;;;;23.39;38.44;102132.69;5069400;28;20175;-78
2022/05/29 09:13:28;;;;;;;23.45;5.18;;;;;;;23.77;37.87;102131.88;5071376;28;20032;-78
2022/05/29 09:16:00;;;;;;;10.13;3.35;;;;;;;23.83;38.35;102129.63;5068275;28;20512;-80
2022/05/29 09:18:31;;;;;;;13.77;3.58;;;;;;;24.02;38.12;102126.75;5083429;28;20692;-84
2022/05/29 09:21:10;;;;;;;7.30;2.60;;;;;;;24.21;38.50;102128.69;5051131;28;20788;-76
2022/05/29 09:23:44;;;;;;;15.93;5.28;;;;;;;24.11;38.61;102132.09;5087063;28;20031;-76
2022/05/29 09:26:14;;;;;;;10.52;3.80;;;;;;;24.00;38.35;102140.28;5089060;28;20112;-76
2022/05/29 09:28:42;;;;;;;10.38;3.58;;;;;;;23.92;38.25;102138.53;5082716;28;20048;-81
2022/05/29 09:31:14;;;;;;;17.88;4.10;;;;;;;23.98;38.21;102137.06;5070839;28;20025;-76
2022/05/29 09:33:41;;;;;;;11.45;3.13;;;;;;;24.12;37.42;102140.13;5069875;28;20471;-77
2022/05/29 09:36:41;;;;;;;11.57;3.58;;;;;;;24.17;37.17;102138.97;5076160;28;20579;-76
2022/05/29 09:39:40;;;;;;;15.32;3.63;;;;;;;24.09;37.64;102149.22;5072949;28;20035;-78
2022/05/29 09:42:14;;;;;;;13.25;9.38;;;;;;;23.86;37.33;102148.41;5073250;28;20483;-75
2022/05/29 09:45:05;;;;;;;13.88;3.08;;;;;;;23.89;37.42;102153.25;5102577;28;20387;-76
2022/05/29 09:50:18;;;;;;;10.98;3.28;;;;;;;23.92;37.06;102161.69;5076826;28;20039;-75
2022/05/29 09:52:45;;;;;;;7.63;2.90;;;;;;;23.66;37.16;102158.78;5072672;28;20032;-75
2022/05/29 09:55:22;;;;;;;11.35;3.95;;;;;;;23.81;37.07;102157.91;5071530;28;20028;-75
2022/05/29 09:57:48;;;;;;;7.68;2.97;;;;;;;23.76;36.87;102172.94;5072705;28;20020;-76
2022/05/29 10:00:23;;;;;;;7.80;2.55;;;;;;;23.69;36.56;102164.44;5072994;28;20024;-75
2022/05/29 10:02:49;;;;;;;10.43;2.78;;;;;;;23.86;36.13;102168.75;5072560;28;20115;-75
2022/05/29 10:05:42;;;;;;;13.15;3.13;;;;;;;23.83;36.03;102165.91;5072609;28;20108;-76
2022/05/29 10:08:31;;;;;;;9.43;2.63;;;;;;;23.68;35.99;102168.41;5072841;28;20031;-79
2022/05/29 10:11:22;;;;;;;8.68;2.42;;;;;;;24.00;35.83;102166.22;5072258;28;20471;-74
2022/05/29 10:13:50;;;;;;;14.07;3.70;;;;;;;24.17;36.05;102166.91;5080381;28;20040;-78
2022/05/29 10:16:32;;;;;;;9.02;2.67;;;;;;;24.21;36.03;102171.38;5082855;28;20029;-79
2022/05/29 10:18:58;;;;;;;9.65;2.42;;;;;;;24.38;35.64;102172.09;5080971;28;20063;-81
2022/05/29 10:21:28;;;;;;;10.65;2.55;;;;;;;24.08;35.77;102170.75;5082495;28;20498;-80
2022/05/29 10:24:11;;;;;;;9.02;2.85;;;;;;;24.17;35.47;102167.72;5083785;28;20170;-77
2022/05/29 10:26:37;;;;;;;6.68;2.40;;;;;;;23.99;35.19;102166.59;5082509;28;20055;-76
2022/05/29 10:29:15;;;;;;;8.15;1.85;;;;;;;23.64;35.78;102172.28;5080972;28;20028;-80
2022/05/29 10:31:42;;;;;;;8.10;2.30;;;;;;;23.32;35.90;102177.16;5082300;28;20097;-78
2022/05/29 10:34:11;;;;;;;6.80;1.23;;;;;;;22.78;36.16;102183.50;5084018;28;20031;-79
2022/05/29 10:36:37;;;;;;;7.25;2.05;;;;;;;22.43;36.49;102187.00;5081958;28;20033;-76
2022/05/29 10:39:13;;;;;;;14.07;3.10;;;;;;;21.76;37.64;102177.63;5082076;28;20036;-78
2022/05/29 10:41:43;;;;;;;7.13;2.35;;;;;;;21.96;37.22;102189.69;5079802;28;20033;-78
2022/05/29 10:44:10;;;;;;;;;;;;;;;22.31;36.65;102193.47;5085135;28;20449;-79
2022/05/29 10:46:48;;;;;;;8.18;1.77;;;;;;;22.44;36.86;102196.97;5083142;28;19939;-77
2022/05/29 10:49:49;;;;;;;9.82;2.08;;;;;;;22.25;36.33;102203.25;5077881;28;20394;-76
2022/05/29 10:52:41;;;;;;;7.95;1.92;;;;;;;21.89;36.77;102193.91;5069687;28;20040;-77
2022/05/29 10:55:24;;;;;;;4.95;1.98;;;;;;;22.03;36.56;102196.28;5067563;28;20487;-76
2022/05/29 10:58:01;;;;;;;5.47;1.70;;;;;;;21.81;36.77;102194.88;5077531;28;20063;-76
2022/05/29 11:00:33;;;;;;;5.80;1.70;;;;;;;21.82;36.29;102190.91;5080874;28;20368;-76
2022/05/29 11:03:40;;;;;;;5.20;1.45;;;;;;;21.99;36.38;102197.31;5082472;28;20479;-76
2022/05/29 11:06:16;;;;;;;8.38;2.53;;;;;;;22.18;36.11;102205.03;5049906;28;20040;-76
2022/05/29 11:08:47;;;;;;;4.15;1.70;;;;;;;22.22;35.68;102198.41;5081934;28;20123;-77
2022/05/29 11:11:19;;;;;;;11.70;3.03;;;;;;;21.78;36.14;102195.59;5075482;28;20027;-76
2022/05/29 11:14:15;;;;;;;7.93;2.28;;;;;;;21.66;36.50;102190.06;5101343;27;20032;-77
2022/05/29 11:16:54;;;;;;;8.52;1.92;;;;;;;22.03;36.14;102189.91;5083081;28;20037;-76
2022/05/29 11:19:46;;;;;;;5.38;1.67;;;;;;;22.25;35.89;102197.69;5113812;27;20041;-76
2022/05/29 11:22:11;;;;;;;10.60;1.60;;;;;;;22.51;35.37;102199.94;5079778;28;20028;-75
2022/05/29 11:25:07;;;;;;;6.50;2.30;;;;;;;22.69;35.48;102184.50;5078740;28;20031;-76
2022/05/29 11:28:13;;;;;;;5.10;1.35;;;;;;;22.77;35.19;102193.03;5075960;28;20481;-76
2022/05/29 11:30:48;;;;;;;4.28;1.13;;;;;;;22.70;34.92;102188.88;5077205;28;20124;-77
2022/05/29 11:33:35;;;;;;;4.95;1.20;;;;;;;22.71;34.18;102193.28;5074403;28;20054;-77
2022/05/29 11:36:19;;;;;;;10.98;1.85;;;;;;;22.95;33.97;102191.47;5072708;28;20093;-76
2022/05/29 11:38:58;;;;;;;82.22;9.40;;;;;;;23.42;33.97;102188.53;5076427;28;20032;-77
2022/05/29 11:41:39;;;;;;;5.78;1.52;;;;;;;23.45;33.64;102181.44;5067691;28;20070;-76
2022/05/29 11:44:20;;;;;;;5.45;1.48;;;;;;;23.10;33.81;102187.84;5069484;28;20032;-76
2022/05/29 11:52:53;;;;;;;5.25;1.13;;;;;;;23.39;33.48;102182.91;5068080;28;20070;-77
2022/05/29 11:55:23;;;;;;;5.78;1.27;;;;;;;23.52;33.06;102184.38;5070958;28;20108;-78
2022/05/29 11:58:01;;;;;;;5.93;2.05;;;;;;;23.86;33.03;102170.72;5069045;28;20024;-77
2022/05/29 12:00:57;;;;;;;7.70;1.63;;;;;;;23.70;32.88;102171.63;5066701;28;20032;-77
2022/05/29 12:03:45;;;;;;;4.70;1.15;;;;;;;23.71;32.99;102166.84;5068104;28;20051;-79
2022/05/29 12:06:31;;;;;;;5.70;1.38;;;;;;;23.73;33.34;102159.75;5076093;28;20475;-77
2022/05/29 12:09:28;;;;;;;7.25;2.42;;;;;;;24.04;32.71;102158.72;5071526;28;20066;-76
2022/05/29 12:12:08;;;;;;;4.85;0.90;;;;;;;24.16;32.54;102159.72;5071490;28;20123;-77
2022/05/29 12:14:40;;;;;;;5.25;1.13;;;;;;;24.49;32.56;102151.56;5069752;28;20025;-77
2022/05/29 12:17:12;;;;;;;6.28;1.63;;;;;;;24.53;32.18;102151.59;5071242;28;20029;-76
2022/05/29 12:19:44;;;;;;;2.95;1.00;;;;;;;24.42;31.67;102147.84;5068630;28;20123;-76